sensor_id;sensor_type;location;lat;lon;timestamp;temperature;humidity
16505;HTU21D;8365;51.030;4.696;2023-12-22T00:00:18;10.16;118.99
16505;HTU21D;8365;51.030;4.696;2023-12-22T00:02:48;10.13;118.99
16505;HTU21D;8365;51.030;4.696;2023-12-22T00:05:21;10.16;118.99
16505;HTU21D;8365;51.030;4.696;2023-12-22T00:07:51;10.13;118.99
16505;HTU21D;8365;51.030;4.696;2023-12-22T00:10:22;10.18;118.99
16505;HTU21D;8365;51.030;4.696;2023-12-22T00:12:52;10.12;118.99
16505;HTU21D;8365;51.030;4.696;2023-12-22T00:15:23;10.12;118.99
16505;HTU21D;8365;51.030;4.696;2023-12-22T00:17:53;10.07;118.99
16505;HTU21D;8365;51.030;4.696;2023-12-22T00:20:24;10.10;118.99
16505;HTU21D;8365;51.030;4.696;2023-12-22T00:22:54;10.07;118.99
16505;HTU21D;8365;51.030;4.696;2023-12-22T00:25:25;10.12;118.99
16505;HTU21D;8365;51.030;4.696;2023-12-22T00:27:55;10.11;118.99
16505;HTU21D;8365;51.030;4.696;2023-12-22T00:30:26;10.09;118.99
16505;HTU21D;8365;51.030;4.696;2023-12-22T00:32:56;10.06;118.99
16505;HTU21D;8365;51.030;4.696;2023-12-22T00:35:27;10.13;118.99
16505;HTU21D;8365;51.030;4.696;2023-12-22T00:37:57;10.04;118.99
16505;HTU21D;8365;51.030;4.696;2023-12-22T00:40:28;10.00;118.99
16505;HTU21D;8365;51.030;4.696;2023-12-22T00:42:58;10.08;118.99
16505;HTU21D;8365;51.030;4.696;2023-12-22T00:45:28;10.01;118.99
16505;HTU21D;8365;51.030;4.696;2023-12-22T00:47:59;9.99;118.99
16505;HTU21D;8365;51.030;4.696;2023-12-22T00:50:32;9.94;118.99
16505;HTU21D;8365;51.030;4.696;2023-12-22T00:53:02;9.97;118.99
16505;HTU21D;8365;51.030;4.696;2023-12-22T00:55:33;10.00;118.99
16505;HTU21D;8365;51.030;4.696;2023-12-22T00:58:03;10.03;118.99
16505;HTU21D;8365;51.030;4.696;2023-12-22T01:00:34;10.05;118.99
16505;HTU21D;8365;51.030;4.696;2023-12-22T01:03:04;10.00;118.99
16505;HTU21D;8365;51.030;4.696;2023-12-22T01:05:37;9.92;118.99
16505;HTU21D;8365;51.030;4.696;2023-12-22T01:08:08;10.01;118.99
16505;HTU21D;8365;51.030;4.696;2023-12-22T01:10:39;10.04;118.99
16505;HTU21D;8365;51.030;4.696;2023-12-22T01:13:09;10.01;118.99
16505;HTU21D;8365;51.030;4.696;2023-12-22T01:15:40;10.05;118.99
16505;HTU21D;8365;51.030;4.696;2023-12-22T01:18:11;10.03;118.99
16505;HTU21D;8365;51.030;4.696;2023-12-22T01:20:41;10.04;118.99
16505;HTU21D;8365;51.030;4.696;2023-12-22T01:23:14;10.04;118.99
16505;HTU21D;8365;51.030;4.696;2023-12-22T01:25:44;9.84;118.99
16505;HTU21D;8365;51.030;4.696;2023-12-22T01:28:15;9.54;118.99
16505;HTU21D;8365;51.030;4.696;2023-12-22T01:30:45;9.25;118.99
16505;HTU21D;8365;51.030;4.696;2023-12-22T01:33:16;8.94;118.99
16505;HTU21D;8365;51.030;4.696;2023-12-22T01:35:46;8.66;118.99
16505;HTU21D;8365;51.030;4.696;2023-12-22T01:38:17;8.71;118.99
16505;HTU21D;8365;51.030;4.696;2023-12-22T01:40:48;8.70;118.99
16505;HTU21D;8365;51.030;4.696;2023-12-22T01:43:20;8.82;118.99
16505;HTU21D;8365;51.030;4.696;2023-12-22T01:45:56;8.95;118.99
16505;HTU21D;8365;51.030;4.696;2023-12-22T01:48:28;9.00;118.99
16505;HTU21D;8365;51.030;4.696;2023-12-22T01:51:00;9.01;118.99
16505;HTU21D;8365;51.030;4.696;2023-12-22T01:53:32;9.22;118.99
16505;HTU21D;8365;51.030;4.696;2023-12-22T01:56:03;9.20;118.99
16505;HTU21D;8365;51.030;4.696;2023-12-22T01:58:36;9.31;118.99
16505;HTU21D;8365;51.030;4.696;2023-12-22T02:01:07;9.40;118.99
16505;HTU21D;8365;51.030;4.696;2023-12-22T02:03:38;9.39;118.99
16505;HTU21D;8365;51.030;4.696;2023-12-22T02:06:10;9.47;118.99
16505;HTU21D;8365;51.030;4.696;2023-12-22T02:08:41;9.50;118.99
16505;HTU21D;8365;51.030;4.696;2023-12-22T02:11:14;9.57;118.99
16505;HTU21D;8365;51.030;4.696;2023-12-22T02:13:44;9.56;118.99
16505;HTU21D;8365;51.030;4.696;2023-12-22T02:16:32;9.68;118.99
16505;HTU21D;8365;51.030;4.696;2023-12-22T02:22:07;9.69;118.99
16505;HTU21D;8365;51.030;4.696;2023-12-22T02:24:39;9.72;118.99
16505;HTU21D;8365;51.030;4.696;2023-12-22T02:30:12;9.81;118.99
16505;HTU21D;8365;51.030;4.696;2023-12-22T02:32:47;9.84;118.99
16505;HTU21D;8365;51.030;4.696;2023-12-22T02:35:20;9.81;118.99
16505;HTU21D;8365;51.030;4.696;2023-12-22T02:37:53;9.88;118.99
16505;HTU21D;8365;51.030;4.696;2023-12-22T02:40:25;9.88;118.99
16505;HTU21D;8365;51.030;4.696;2023-12-22T02:42:56;9.89;118.99
16505;HTU21D;8365;51.030;4.696;2023-12-22T02:45:27;9.88;118.99
16505;HTU21D;8365;51.030;4.696;2023-12-22T02:47:58;9.90;118.99
16505;HTU21D;8365;51.030;4.696;2023-12-22T02:50:28;9.86;118.99
16505;HTU21D;8365;51.030;4.696;2023-12-22T02:52:59;9.93;118.99
16505;HTU21D;8365;51.030;4.696;2023-12-22T02:55:29;9.86;118.99
16505;HTU21D;8365;51.030;4.696;2023-12-22T02:57:59;9.85;118.99
16505;HTU21D;8365;51.030;4.696;2023-12-22T03:00:30;9.85;118.99
16505;HTU21D;8365;51.030;4.696;2023-12-22T03:03:00;9.93;118.99
16505;HTU21D;8365;51.030;4.696;2023-12-22T03:05:31;9.89;118.99
16505;HTU21D;8365;51.030;4.696;2023-12-22T03:08:01;9.90;118.99
16505;HTU21D;8365;51.030;4.696;2023-12-22T03:10:32;9.89;118.99
16505;HTU21D;8365;51.030;4.696;2023-12-22T03:13:02;9.86;118.99
16505;HTU21D;8365;51.030;4.696;2023-12-22T03:15:33;9.84;118.99
16505;HTU21D;8365;51.030;4.696;2023-12-22T03:18:03;9.86;118.99
16505;HTU21D;8365;51.030;4.696;2023-12-22T03:20:34;9.94;118.99
16505;HTU21D;8365;51.030;4.696;2023-12-22T03:23:04;9.92;118.99
16505;HTU21D;8365;51.030;4.696;2023-12-22T03:25:35;10.00;118.99
16505;HTU21D;8365;51.030;4.696;2023-12-22T03:28:05;9.97;118.99
16505;HTU21D;8365;51.030;4.696;2023-12-22T03:30:36;9.96;118.99
16505;HTU21D;8365;51.030;4.696;2023-12-22T03:33:08;9.99;118.99
16505;HTU21D;8365;51.030;4.696;2023-12-22T03:35:38;9.99;118.99
16505;HTU21D;8365;51.030;4.696;2023-12-22T03:38:09;9.97;118.99
16505;HTU21D;8365;51.030;4.696;2023-12-22T03:40:39;9.96;118.99
16505;HTU21D;8365;51.030;4.696;2023-12-22T03:43:10;9.96;118.99
16505;HTU21D;8365;51.030;4.696;2023-12-22T03:45:40;9.95;118.99
16505;HTU21D;8365;51.030;4.696;2023-12-22T03:48:11;9.96;118.99
16505;HTU21D;8365;51.030;4.696;2023-12-22T03:50:41;9.86;118.99
16505;HTU21D;8365;51.030;4.696;2023-12-22T03:53:12;9.88;118.99
16505;HTU21D;8365;51.030;4.696;2023-12-22T03:55:42;9.88;118.99
16505;HTU21D;8365;51.030;4.696;2023-12-22T03:58:13;9.92;118.99
16505;HTU21D;8365;51.030;4.696;2023-12-22T04:00:43;9.84;118.99
16505;HTU21D;8365;51.030;4.696;2023-12-22T04:03:14;9.86;118.99
16505;HTU21D;8365;51.030;4.696;2023-12-22T04:05:45;9.84;118.99
16505;HTU21D;8365;51.030;4.696;2023-12-22T04:08:15;9.82;118.99
16505;HTU21D;8365;51.030;4.696;2023-12-22T04:10:46;9.80;118.99
16505;HTU21D;8365;51.030;4.696;2023-12-22T04:13:16;9.85;118.99
16505;HTU21D;8365;51.030;4.696;2023-12-22T04:15:49;9.77;118.99
16505;HTU21D;8365;51.030;4.696;2023-12-22T04:18:20;9.82;118.99
16505;HTU21D;8365;51.030;4.696;2023-12-22T04:20:50;9.79;118.99
16505;HTU21D;8365;51.030;4.696;2023-12-22T04:23:23;9.79;118.99
16505;HTU21D;8365;51.030;4.696;2023-12-22T04:25:54;9.80;118.99
16505;HTU21D;8365;51.030;4.696;2023-12-22T04:28:25;9.80;118.99
16505;HTU21D;8365;51.030;4.696;2023-12-22T04:30:55;9.80;118.99
16505;HTU21D;8365;51.030;4.696;2023-12-22T04:33:26;9.74;118.99
16505;HTU21D;8365;51.030;4.696;2023-12-22T04:35:56;9.72;118.99
16505;HTU21D;8365;51.030;4.696;2023-12-22T04:38:27;9.66;118.99
16505;HTU21D;8365;51.030;4.696;2023-12-22T04:40:57;9.62;118.99
16505;HTU21D;8365;51.030;4.696;2023-12-22T04:43:28;9.57;118.99
16505;HTU21D;8365;51.030;4.696;2023-12-22T04:45:58;9.56;118.99
16505;HTU21D;8365;51.030;4.696;2023-12-22T04:48:29;9.63;118.99
16505;HTU21D;8365;51.030;4.696;2023-12-22T04:50:59;9.56;118.99
16505;HTU21D;8365;51.030;4.696;2023-12-22T04:53:30;9.50;118.99
16505;HTU21D;8365;51.030;4.696;2023-12-22T04:56:00;9.49;118.99
16505;HTU21D;8365;51.030;4.696;2023-12-22T04:58:31;9.42;118.99
16505;HTU21D;8365;51.030;4.696;2023-12-22T05:01:01;9.35;118.99
16505;HTU21D;8365;51.030;4.696;2023-12-22T05:03:32;9.38;118.99
16505;HTU21D;8365;51.030;4.696;2023-12-22T05:06:02;9.36;118.99
16505;HTU21D;8365;51.030;4.696;2023-12-22T05:08:33;9.33;118.99
16505;HTU21D;8365;51.030;4.696;2023-12-22T05:11:04;9.35;118.99
16505;HTU21D;8365;51.030;4.696;2023-12-22T05:13:35;9.36;118.99
16505;HTU21D;8365;51.030;4.696;2023-12-22T05:16:08;9.36;118.99
16505;HTU21D;8365;51.030;4.696;2023-12-22T05:18:39;9.36;118.99
16505;HTU21D;8365;51.030;4.696;2023-12-22T05:21:12;9.33;118.99
16505;HTU21D;8365;51.030;4.696;2023-12-22T05:23:43;9.38;118.99
16505;HTU21D;8365;51.030;4.696;2023-12-22T05:26:18;9.39;118.99
16505;HTU21D;8365;51.030;4.696;2023-12-22T05:28:48;9.41;118.99
16505;HTU21D;8365;51.030;4.696;2023-12-22T05:31:22;9.35;118.99
16505;HTU21D;8365;51.030;4.696;2023-12-22T05:33:52;9.32;118.99
16505;HTU21D;8365;51.030;4.696;2023-12-22T05:36:23;9.37;118.99
16505;HTU21D;8365;51.030;4.696;2023-12-22T05:38:53;9.41;118.99
16505;HTU21D;8365;51.030;4.696;2023-12-22T05:41:24;9.44;118.99
16505;HTU21D;8365;51.030;4.696;2023-12-22T05:43:54;9.52;118.99
16505;HTU21D;8365;51.030;4.696;2023-12-22T05:46:25;9.45;118.99
16505;HTU21D;8365;51.030;4.696;2023-12-22T05:48:57;9.52;118.99
16505;HTU21D;8365;51.030;4.696;2023-12-22T05:51:29;9.51;118.99
16505;HTU21D;8365;51.030;4.696;2023-12-22T05:54:09;9.53;118.99
16505;HTU21D;8365;51.030;4.696;2023-12-22T05:56:40;9.63;118.99
16505;HTU21D;8365;51.030;4.696;2023-12-22T05:59:10;9.71;118.99
16505;HTU21D;8365;51.030;4.696;2023-12-22T06:01:41;9.69;118.99
16505;HTU21D;8365;51.030;4.696;2023-12-22T06:04:11;9.78;118.99
16505;HTU21D;8365;51.030;4.696;2023-12-22T06:06:42;9.80;118.99
16505;HTU21D;8365;51.030;4.696;2023-12-22T06:09:12;9.81;118.99
16505;HTU21D;8365;51.030;4.696;2023-12-22T06:11:45;9.91;118.99
16505;HTU21D;8365;51.030;4.696;2023-12-22T06:14:18;9.90;118.99
16505;HTU21D;8365;51.030;4.696;2023-12-22T06:16:48;9.89;118.99
16505;HTU21D;8365;51.030;4.696;2023-12-22T06:19:19;9.94;118.99
16505;HTU21D;8365;51.030;4.696;2023-12-22T06:21:51;10.01;118.99
16505;HTU21D;8365;51.030;4.696;2023-12-22T06:24:21;9.99;118.99
16505;HTU21D;8365;51.030;4.696;2023-12-22T06:26:51;9.97;118.99
16505;HTU21D;8365;51.030;4.696;2023-12-22T06:29:22;9.97;118.99
16505;HTU21D;8365;51.030;4.696;2023-12-22T06:31:55;9.90;118.99
16505;HTU21D;8365;51.030;4.696;2023-12-22T06:34:26;9.90;118.99
16505;HTU21D;8365;51.030;4.696;2023-12-22T06:36:57;9.90;118.99
16505;HTU21D;8365;51.030;4.696;2023-12-22T06:39:28;9.91;118.99
16505;HTU21D;8365;51.030;4.696;2023-12-22T06:42:01;9.89;118.99
16505;HTU21D;8365;51.030;4.696;2023-12-22T06:44:32;9.89;118.99
16505;HTU21D;8365;51.030;4.696;2023-12-22T06:47:02;9.77;118.99
16505;HTU21D;8365;51.030;4.696;2023-12-22T06:49:33;9.70;118.99
16505;HTU21D;8365;51.030;4.696;2023-12-22T06:52:04;9.55;118.99
16505;HTU21D;8365;51.030;4.696;2023-12-22T06:54:34;9.49;118.99
16505;HTU21D;8365;51.030;4.696;2023-12-22T06:57:05;9.36;118.99
16505;HTU21D;8365;51.030;4.696;2023-12-22T06:59:35;9.35;118.99
16505;HTU21D;8365;51.030;4.696;2023-12-22T07:02:05;9.25;118.99
16505;HTU21D;8365;51.030;4.696;2023-12-22T07:04:36;9.12;118.99
16505;HTU21D;8365;51.030;4.696;2023-12-22T07:07:07;9.12;118.99
16505;HTU21D;8365;51.030;4.696;2023-12-22T07:09:37;9.07;118.99
16505;HTU21D;8365;51.030;4.696;2023-12-22T07:12:09;9.15;118.99
16505;HTU21D;8365;51.030;4.696;2023-12-22T07:14:40;9.04;118.99
16505;HTU21D;8365;51.030;4.696;2023-12-22T07:17:10;9.04;118.99
16505;HTU21D;8365;51.030;4.696;2023-12-22T07:19:41;8.95;118.99
16505;HTU21D;8365;51.030;4.696;2023-12-22T07:22:11;8.96;118.99
16505;HTU21D;8365;51.030;4.696;2023-12-22T07:24:45;8.92;118.99
16505;HTU21D;8365;51.030;4.696;2023-12-22T07:27:19;8.93;118.99
16505;HTU21D;8365;51.030;4.696;2023-12-22T07:29:49;8.91;118.99
16505;HTU21D;8365;51.030;4.696;2023-12-22T07:32:19;8.83;118.99
16505;HTU21D;8365;51.030;4.696;2023-12-22T07:34:50;8.86;118.99
16505;HTU21D;8365;51.030;4.696;2023-12-22T07:37:23;8.82;118.99
16505;HTU21D;8365;51.030;4.696;2023-12-22T07:39:53;8.82;118.99
16505;HTU21D;8365;51.030;4.696;2023-12-22T07:42:24;8.79;118.99
16505;HTU21D;8365;51.030;4.696;2023-12-22T07:44:54;8.70;118.99
16505;HTU21D;8365;51.030;4.696;2023-12-22T07:47:25;8.67;118.99
16505;HTU21D;8365;51.030;4.696;2023-12-22T07:49:56;8.71;118.99
16505;HTU21D;8365;51.030;4.696;2023-12-22T07:52:27;8.68;118.99
16505;HTU21D;8365;51.030;4.696;2023-12-22T07:54:59;8.73;118.99
16505;HTU21D;8365;51.030;4.696;2023-12-22T07:57:30;8.74;118.99
16505;HTU21D;8365;51.030;4.696;2023-12-22T08:00:00;8.72;118.99
16505;HTU21D;8365;51.030;4.696;2023-12-22T08:02:31;8.71;118.99
16505;HTU21D;8365;51.030;4.696;2023-12-22T08:05:01;8.79;118.99
16505;HTU21D;8365;51.030;4.696;2023-12-22T08:07:32;8.76;118.99
16505;HTU21D;8365;51.030;4.696;2023-12-22T08:10:03;8.74;118.99
16505;HTU21D;8365;51.030;4.696;2023-12-22T08:12:34;8.71;118.99
16505;HTU21D;8365;51.030;4.696;2023-12-22T08:15:06;8.67;118.99
16505;HTU21D;8365;51.030;4.696;2023-12-22T08:17:46;8.74;118.99
16505;HTU21D;8365;51.030;4.696;2023-12-22T08:20:21;8.74;118.99
16505;HTU21D;8365;51.030;4.696;2023-12-22T08:22:51;8.76;118.99
16505;HTU21D;8365;51.030;4.696;2023-12-22T08:25:22;8.78;118.99
16505;HTU21D;8365;51.030;4.696;2023-12-22T08:27:52;8.78;118.99
16505;HTU21D;8365;51.030;4.696;2023-12-22T08:30:25;8.78;118.99
16505;HTU21D;8365;51.030;4.696;2023-12-22T08:32:58;8.87;118.99
16505;HTU21D;8365;51.030;4.696;2023-12-22T08:35:29;8.89;118.99
16505;HTU21D;8365;51.030;4.696;2023-12-22T08:38:02;8.87;118.99
16505;HTU21D;8365;51.030;4.696;2023-12-22T08:40:32;8.94;118.99
16505;HTU21D;8365;51.030;4.696;2023-12-22T08:43:03;8.93;118.99
16505;HTU21D;8365;51.030;4.696;2023-12-22T08:45:33;9.02;118.99
16505;HTU21D;8365;51.030;4.696;2023-12-22T08:48:04;9.00;118.99
16505;HTU21D;8365;51.030;4.696;2023-12-22T08:50:42;9.01;118.99
16505;HTU21D;8365;51.030;4.696;2023-12-22T08:53:13;9.07;118.99
16505;HTU21D;8365;51.030;4.696;2023-12-22T08:55:46;9.12;118.99
16505;HTU21D;8365;51.030;4.696;2023-12-22T08:58:17;9.11;118.99
16505;HTU21D;8365;51.030;4.696;2023-12-22T09:00:47;9.18;118.99
16505;HTU21D;8365;51.030;4.696;2023-12-22T09:03:18;9.26;118.99
16505;HTU21D;8365;51.030;4.696;2023-12-22T09:05:48;9.34;118.99
16505;HTU21D;8365;51.030;4.696;2023-12-22T09:08:19;9.35;118.99
16505;HTU21D;8365;51.030;4.696;2023-12-22T09:10:54;9.48;118.99
16505;HTU21D;8365;51.030;4.696;2023-12-22T09:13:24;9.48;118.99
16505;HTU21D;8365;51.030;4.696;2023-12-22T09:15:56;9.52;118.99
16505;HTU21D;8365;51.030;4.696;2023-12-22T09:18:27;9.55;118.99
16505;HTU21D;8365;51.030;4.696;2023-12-22T09:20:58;9.54;118.99
16505;HTU21D;8365;51.030;4.696;2023-12-22T09:23:29;9.56;118.99
16505;HTU21D;8365;51.030;4.696;2023-12-22T09:25:59;9.62;118.99
16505;HTU21D;8365;51.030;4.696;2023-12-22T09:28:30;9.63;118.99
16505;HTU21D;8365;51.030;4.696;2023-12-22T09:31:03;9.65;118.99
16505;HTU21D;8365;51.030;4.696;2023-12-22T09:33:35;9.68;118.99
16505;HTU21D;8365;51.030;4.696;2023-12-22T09:36:06;9.64;118.99
16505;HTU21D;8365;51.030;4.696;2023-12-22T09:38:37;9.74;118.99
16505;HTU21D;8365;51.030;4.696;2023-12-22T09:41:07;9.69;118.99
16505;HTU21D;8365;51.030;4.696;2023-12-22T09:43:38;9.67;118.99
16505;HTU21D;8365;51.030;4.696;2023-12-22T09:46:10;9.70;118.99
16505;HTU21D;8365;51.030;4.696;2023-12-22T09:48:42;9.70;118.99
16505;HTU21D;8365;51.030;4.696;2023-12-22T09:51:13;9.76;118.99
16505;HTU21D;8365;51.030;4.696;2023-12-22T09:53:45;9.79;118.99
16505;HTU21D;8365;51.030;4.696;2023-12-22T09:56:17;9.80;118.99
16505;HTU21D;8365;51.030;4.696;2023-12-22T09:58:49;9.81;118.99
16505;HTU21D;8365;51.030;4.696;2023-12-22T10:01:22;9.83;118.99
16505;HTU21D;8365;51.030;4.696;2023-12-22T10:03:54;9.89;118.99
16505;HTU21D;8365;51.030;4.696;2023-12-22T10:06:24;9.96;118.99
16505;HTU21D;8365;51.030;4.696;2023-12-22T10:08:55;9.96;118.99
16505;HTU21D;8365;51.030;4.696;2023-12-22T10:11:28;9.99;118.99
16505;HTU21D;8365;51.030;4.696;2023-12-22T10:14:02;9.98;118.99
16505;HTU21D;8365;51.030;4.696;2023-12-22T10:16:34;10.08;118.99
16505;HTU21D;8365;51.030;4.696;2023-12-22T10:19:08;10.12;118.99
16505;HTU21D;8365;51.030;4.696;2023-12-22T10:21:39;10.16;118.99
16505;HTU21D;8365;51.030;4.696;2023-12-22T10:24:39;10.25;118.99
16505;HTU21D;8365;51.030;4.696;2023-12-22T10:27:13;10.24;118.99
16505;HTU21D;8365;51.030;4.696;2023-12-22T10:29:44;10.34;118.99
16505;HTU21D;8365;51.030;4.696;2023-12-22T10:32:14;10.42;118.99
16505;HTU21D;8365;51.030;4.696;2023-12-22T10:34:48;10.48;118.99
16505;HTU21D;8365;51.030;4.696;2023-12-22T10:37:19;10.55;118.99
16505;HTU21D;8365;51.030;4.696;2023-12-22T10:39:54;10.63;118.99
16505;HTU21D;8365;51.030;4.696;2023-12-22T10:42:25;10.63;118.99
16505;HTU21D;8365;51.030;4.696;2023-12-22T10:44:56;10.67;118.99
16505;HTU21D;8365;51.030;4.696;2023-12-22T10:47:28;10.67;118.99
16505;HTU21D;8365;51.030;4.696;2023-12-22T10:50:02;10.73;118.99
16505;HTU21D;8365;51.030;4.696;2023-12-22T10:52:34;10.79;118.99
16505;HTU21D;8365;51.030;4.696;2023-12-22T10:55:05;10.82;118.99
16505;HTU21D;8365;51.030;4.696;2023-12-22T10:57:36;10.79;118.99
16505;HTU21D;8365;51.030;4.696;2023-12-22T11:00:10;10.88;118.99
16505;HTU21D;8365;51.030;4.696;2023-12-22T11:02:42;10.98;118.99
16505;HTU21D;8365;51.030;4.696;2023-12-22T11:05:14;11.01;118.99
16505;HTU21D;8365;51.030;4.696;2023-12-22T11:07:51;11.02;118.99
16505;HTU21D;8365;51.030;4.696;2023-12-22T11:10:24;11.00;118.99
16505;HTU21D;8365;51.030;4.696;2023-12-22T11:12:57;10.99;118.99
16505;HTU21D;8365;51.030;4.696;2023-12-22T11:15:28;10.92;118.99
16505;HTU21D;8365;51.030;4.696;2023-12-22T11:18:01;10.90;118.99
16505;HTU21D;8365;51.030;4.696;2023-12-22T11:20:32;10.87;118.99
16505;HTU21D;8365;51.030;4.696;2023-12-22T11:23:04;10.85;118.99
16505;HTU21D;8365;51.030;4.696;2023-12-22T11:25:36;10.86;118.99
16505;HTU21D;8365;51.030;4.696;2023-12-22T11:28:08;10.88;118.99
16505;HTU21D;8365;51.030;4.696;2023-12-22T11:30:39;10.81;118.99
16505;HTU21D;8365;51.030;4.696;2023-12-22T11:33:12;10.70;118.99
16505;HTU21D;8365;51.030;4.696;2023-12-22T11:35:45;10.56;118.99
16505;HTU21D;8365;51.030;4.696;2023-12-22T11:38:16;10.55;118.99
16505;HTU21D;8365;51.030;4.696;2023-12-22T11:40:49;10.44;118.99
16505;HTU21D;8365;51.030;4.696;2023-12-22T11:43:22;10.46;118.99
16505;HTU21D;8365;51.030;4.696;2023-12-22T11:45:53;10.53;118.99
16505;HTU21D;8365;51.030;4.696;2023-12-22T11:48:24;10.57;118.99
16505;HTU21D;8365;51.030;4.696;2023-12-22T11:50:54;10.60;118.99
16505;HTU21D;8365;51.030;4.696;2023-12-22T11:53:29;10.64;118.99
16505;HTU21D;8365;51.030;4.696;2023-12-22T11:58:47;10.81;118.99
16505;HTU21D;8365;51.030;4.696;2023-12-22T12:01:23;10.83;118.99
16505;HTU21D;8365;51.030;4.696;2023-12-22T12:03:59;10.93;118.99
16505;HTU21D;8365;51.030;4.696;2023-12-22T12:06:34;10.90;118.99
16505;HTU21D;8365;51.030;4.696;2023-12-22T12:09:07;11.02;118.99
16505;HTU21D;8365;51.030;4.696;2023-12-22T12:14:32;11.22;118.99
16505;HTU21D;8365;51.030;4.696;2023-12-22T12:17:06;11.26;118.99
16505;HTU21D;8365;51.030;4.696;2023-12-22T12:19:43;11.30;118.99
16505;HTU21D;8365;51.030;4.696;2023-12-22T12:22:14;11.28;118.99
16505;HTU21D;8365;51.030;4.696;2023-12-22T12:24:45;11.37;118.99
16505;HTU21D;8365;51.030;4.696;2023-12-22T12:27:19;11.43;118.99
16505;HTU21D;8365;51.030;4.696;2023-12-22T12:29:50;11.42;118.99
16505;HTU21D;8365;51.030;4.696;2023-12-22T12:32:23;11.48;118.99
16505;HTU21D;8365;51.030;4.696;2023-12-22T12:34:54;11.47;118.99
16505;HTU21D;8365;51.030;4.696;2023-12-22T12:37:26;11.41;118.99
16505;HTU21D;8365;51.030;4.696;2023-12-22T12:39:58;11.45;118.99
16505;HTU21D;8365;51.030;4.696;2023-12-22T12:42:35;11.45;118.99
16505;HTU21D;8365;51.030;4.696;2023-12-22T12:45:07;11.43;118.99
16505;HTU21D;8365;51.030;4.696;2023-12-22T12:47:38;11.53;118.99
16505;HTU21D;8365;51.030;4.696;2023-12-22T12:50:08;11.46;118.99
16505;HTU21D;8365;51.030;4.696;2023-12-22T12:52:41;11.43;118.99
16505;HTU21D;8365;51.030;4.696;2023-12-22T12:55:13;11.41;118.99
16505;HTU21D;8365;51.030;4.696;2023-12-22T12:57:43;11.48;118.99
16505;HTU21D;8365;51.030;4.696;2023-12-22T13:00:14;11.42;118.99
16505;HTU21D;8365;51.030;4.696;2023-12-22T13:02:47;11.37;118.99
16505;HTU21D;8365;51.030;4.696;2023-12-22T13:05:24;11.27;118.99
16505;HTU21D;8365;51.030;4.696;2023-12-22T13:08:07;11.28;118.99
16505;HTU21D;8365;51.030;4.696;2023-12-22T13:10:39;11.25;118.99
16505;HTU21D;8365;51.030;4.696;2023-12-22T13:13:10;11.33;118.99
16505;HTU21D;8365;51.030;4.696;2023-12-22T13:15:42;11.38;118.99
16505;HTU21D;8365;51.030;4.696;2023-12-22T13:18:13;11.39;118.99
16505;HTU21D;8365;51.030;4.696;2023-12-22T13:20:45;11.39;118.99
16505;HTU21D;8365;51.030;4.696;2023-12-22T13:23:19;11.41;118.99
16505;HTU21D;8365;51.030;4.696;2023-12-22T13:25:49;11.47;118.99
16505;HTU21D;8365;51.030;4.696;2023-12-22T13:28:27;11.44;118.99
16505;HTU21D;8365;51.030;4.696;2023-12-22T13:30:58;11.40;118.99
16505;HTU21D;8365;51.030;4.696;2023-12-22T13:33:33;11.41;118.99
16505;HTU21D;8365;51.030;4.696;2023-12-22T13:36:04;11.41;118.99
16505;HTU21D;8365;51.030;4.696;2023-12-22T13:38:36;11.42;118.99
16505;HTU21D;8365;51.030;4.696;2023-12-22T13:41:07;11.40;118.99
16505;HTU21D;8365;51.030;4.696;2023-12-22T13:43:37;11.32;118.99
16505;HTU21D;8365;51.030;4.696;2023-12-22T13:46:08;11.27;118.99
16505;HTU21D;8365;51.030;4.696;2023-12-22T13:48:39;11.27;118.99
16505;HTU21D;8365;51.030;4.696;2023-12-22T13:51:10;11.28;118.99
16505;HTU21D;8365;51.030;4.696;2023-12-22T13:53:47;11.15;118.99
16505;HTU21D;8365;51.030;4.696;2023-12-22T13:56:18;11.14;118.99
16505;HTU21D;8365;51.030;4.696;2023-12-22T13:58:49;11.03;118.99
16505;HTU21D;8365;51.030;4.696;2023-12-22T14:01:19;11.08;118.99
16505;HTU21D;8365;51.030;4.696;2023-12-22T14:03:50;11.15;118.99
16505;HTU21D;8365;51.030;4.696;2023-12-22T14:06:21;11.16;118.99
16505;HTU21D;8365;51.030;4.696;2023-12-22T14:08:52;11.26;118.99
16505;HTU21D;8365;51.030;4.696;2023-12-22T14:11:23;11.28;118.99
16505;HTU21D;8365;51.030;4.696;2023-12-22T14:13:53;11.30;118.99
16505;HTU21D;8365;51.030;4.696;2023-12-22T14:16:23;11.33;118.99
16505;HTU21D;8365;51.030;4.696;2023-12-22T14:18:54;11.37;118.99
16505;HTU21D;8365;51.030;4.696;2023-12-22T14:21:25;11.32;118.99
16505;HTU21D;8365;51.030;4.696;2023-12-22T14:23:56;11.28;118.99
16505;HTU21D;8365;51.030;4.696;2023-12-22T14:26:26;11.28;118.99
16505;HTU21D;8365;51.030;4.696;2023-12-22T14:28:57;11.23;118.99
16505;HTU21D;8365;51.030;4.696;2023-12-22T14:31:27;11.30;118.99
16505;HTU21D;8365;51.030;4.696;2023-12-22T14:33:58;11.29;118.99
16505;HTU21D;8365;51.030;4.696;2023-12-22T14:36:28;11.46;118.99
16505;HTU21D;8365;51.030;4.696;2023-12-22T14:38:58;11.46;118.99
16505;HTU21D;8365;51.030;4.696;2023-12-22T14:41:29;11.44;118.99
16505;HTU21D;8365;51.030;4.696;2023-12-22T14:43:59;11.40;118.99
16505;HTU21D;8365;51.030;4.696;2023-12-22T14:46:32;11.41;118.99
16505;HTU21D;8365;51.030;4.696;2023-12-22T14:49:03;11.41;118.99
16505;HTU21D;8365;51.030;4.696;2023-12-22T14:51:37;11.43;118.99
16505;HTU21D;8365;51.030;4.696;2023-12-22T14:54:08;11.46;118.99
16505;HTU21D;8365;51.030;4.696;2023-12-22T14:56:39;11.53;118.99
16505;HTU21D;8365;51.030;4.696;2023-12-22T14:59:11;11.52;118.99
16505;HTU21D;8365;51.030;4.696;2023-12-22T15:01:42;11.59;118.99
16505;HTU21D;8365;51.030;4.696;2023-12-22T15:04:13;11.58;118.99
16505;HTU21D;8365;51.030;4.696;2023-12-22T15:06:45;11.56;118.99
16505;HTU21D;8365;51.030;4.696;2023-12-22T15:09:16;11.55;118.99
16505;HTU21D;8365;51.030;4.696;2023-12-22T15:11:48;11.60;118.99
16505;HTU21D;8365;51.030;4.696;2023-12-22T15:14:21;11.60;118.99
16505;HTU21D;8365;51.030;4.696;2023-12-22T15:16:54;11.57;118.99
16505;HTU21D;8365;51.030;4.696;2023-12-22T15:19:24;11.58;118.99
16505;HTU21D;8365;51.030;4.696;2023-12-22T15:21:56;11.59;118.99
16505;HTU21D;8365;51.030;4.696;2023-12-22T15:24:27;11.60;118.99
16505;HTU21D;8365;51.030;4.696;2023-12-22T15:26:59;11.59;118.99
16505;HTU21D;8365;51.030;4.696;2023-12-22T15:29:29;11.57;118.99
16505;HTU21D;8365;51.030;4.696;2023-12-22T15:32:00;11.58;118.99
16505;HTU21D;8365;51.030;4.696;2023-12-22T15:34:30;11.56;118.99
16505;HTU21D;8365;51.030;4.696;2023-12-22T15:37:01;11.51;118.99
16505;HTU21D;8365;51.030;4.696;2023-12-22T15:39:32;11.55;118.99
16505;HTU21D;8365;51.030;4.696;2023-12-22T15:42:05;11.57;118.99
16505;HTU21D;8365;51.030;4.696;2023-12-22T15:44:42;11.60;118.99
16505;HTU21D;8365;51.030;4.696;2023-12-22T15:47:13;11.58;118.99
16505;HTU21D;8365;51.030;4.696;2023-12-22T15:49:43;11.66;118.99
16505;HTU21D;8365;51.030;4.696;2023-12-22T15:52:14;11.64;118.99
16505;HTU21D;8365;51.030;4.696;2023-12-22T15:54:46;11.64;118.99
16505;HTU21D;8365;51.030;4.696;2023-12-22T15:57:17;11.58;118.99
16505;HTU21D;8365;51.030;4.696;2023-12-22T15:59:47;11.60;118.99
16505;HTU21D;8365;51.030;4.696;2023-12-22T16:02:18;11.58;118.99